Time;durP1;ratioP1;P1;durP2;ratioP2;P2;SDS_P1;SDS_P2;PMS_P1;PMS_P2;Temp;Humidity;BMP_temperature;BMP_pressure;BME280_temperature;BME280_humidity;BME280_pressure;Samples;Min_cycle;Max_cycle;Signal;HPM_P1;HPM_P2
2021/12/10 00:01:49;;;;;;;1.98;1.50;;;17.10;56.10;;;;;;5051054;28;20179;-59
2021/12/10 00:04:14;;;;;;;2.88;1.70;;;17.10;56.00;;;;;;5051596;28;20599;-59
2021/12/10 00:06:49;;;;;;;2.83;1.60;;;17.10;56.00;;;;;;5051616;28;20241;-58
2021/12/10 00:09:18;;;;;;;1.85;1.40;;;17.00;56.00;;;;;;5050878;28;20355;-59
2021/12/10 00:11:49;;;;;;;2.40;1.50;;;17.00;56.00;;;;;;5051460;28;20537;-59
2021/12/10 00:14:15;;;;;;;2.33;1.88;;;17.00;56.00;;;;;;5051827;28;20182;-59
2021/12/10 00:16:41;;;;;;;1.40;1.20;;;17.00;56.00;;;;;;5050737;28;20171;-60
2021/12/10 00:19:23;;;;;;;2.20;1.85;;;17.00;56.10;;;;;;5051340;28;20179;-59
2021/12/10 00:21:49;;;;;;;2.20;1.58;;;17.00;56.10;;;;;;5051642;28;20178;-59
2021/12/10 00:24:16;;;;;;;2.25;1.70;;;16.90;56.00;;;;;;5050741;28;20249;-59
2021/12/10 00:26:42;;;;;;;2.05;1.52;;;17.00;56.10;;;;;;5051099;28;20183;-60
2021/12/10 00:29:08;;;;;;;2.55;1.85;;;16.90;56.00;;;;;;5050664;28;20211;-58
2021/12/10 00:34:06;;;;;;;2.75;1.63;;;16.90;56.10;;;;;;5051720;28;20171;-60
2021/12/10 00:36:36;;;;;;;2.33;1.38;;;16.90;56.00;;;;;;5050435;28;20175;-60
2021/12/10 00:39:06;;;;;;;1.88;1.55;;;16.90;56.00;;;;;;5051253;28;20183;-60
2021/12/10 00:41:31;;;;;;;1.98;1.73;;;16.90;56.10;;;;;;5051320;28;20205;-60
2021/12/10 00:43:57;;;;;;;2.17;1.52;;;16.90;56.10;;;;;;5050710;28;20183;-60
2021/12/10 00:46:22;;;;;;;2.17;1.80;;;16.90;56.10;;;;;;5051130;28;20171;-60
2021/12/10 00:48:48;;;;;;;2.65;1.60;;;16.80;56.00;;;;;;5051406;28;20264;-59
2021/12/10 00:51:13;;;;;;;1.40;1.30;;;16.80;56.00;;;;;;5050696;28;20167;-60
2021/12/10 00:53:39;;;;;;;1.92;1.58;;;16.80;56.00;;;;;;5050912;28;20616;-60
2021/12/10 00:56:05;;;;;;;2.80;1.70;;;16.80;56.00;;;;;;5051675;28;20635;-60
2021/12/10 00:58:34;;;;;;;2.28;1.63;;;16.80;56.00;;;;;;5050254;28;20175;-60
2021/12/10 01:01:03;;;;;;;2.33;1.75;;;16.80;56.00;;;;;;5051384;28;20529;-60
2021/12/10 01:03:31;;;;;;;2.30;1.75;;;16.70;56.00;;;;;;5050855;28;20179;-60
2021/12/10 01:06:01;;;;;;;1.77;1.40;;;16.70;56.00;;;;;;5050787;28;20179;-59
2021/12/10 01:08:27;;;;;;;2.83;1.67;;;16.70;55.90;;;;;;5054359;28;20198;-59
2021/12/10 01:11:01;;;;;;;2.22;1.50;;;16.70;55.90;;;;;;5055397;28;20179;-60
2021/12/10 01:13:33;;;;;;;2.33;1.33;;;16.70;55.90;;;;;;5054116;28;20549;-60
2021/12/10 01:23:44;;;;;;;2.15;1.45;;;16.70;56.00;;;;;;5054898;28;20191;-60
2021/12/10 01:24:53;;;;;;;2.28;2.08;;;16.60;55.90;;;;;;5054135;28;20244;-59
2021/12/10 01:27:31;;;;;;;2.28;1.67;;;16.60;55.90;;;;;;5053560;28;20206;-59
2021/12/10 01:29:58;;;;;;;2.13;1.92;;;16.60;55.90;;;;;;5054610;28;20240;-59
2021/12/10 01:32:26;;;;;;;2.33;1.60;;;16.60;55.90;;;;;;5053434;28;20534;-59
2021/12/10 01:34:52;;;;;;;1.98;1.80;;;16.60;55.80;;;;;;5054398;28;20179;-59
2021/12/10 01:37:18;;;;;;;1.88;1.77;;;16.60;55.80;;;;;;5054300;28;20171;-60
2021/12/10 01:39:43;;;;;;;1.95;1.40;;;16.60;55.80;;;;;;5053205;28;20622;-60
2021/12/10 01:42:20;;;;;;;1.95;1.50;;;16.50;55.80;;;;;;5054406;28;20179;-60
2021/12/10 01:44:50;;;;;;;2.58;1.83;;;16.50;55.80;;;;;;5054448;28;20166;-59
2021/12/10 01:47:17;;;;;;;1.63;1.50;;;16.60;55.90;;;;;;5053676;28;20584;-59
2021/12/10 01:49:43;;;;;;;2.15;1.50;;;16.50;55.80;;;;;;5053708;28;20577;-59
2021/12/10 01:52:12;;;;;;;2.38;1.75;;;16.50;55.80;;;;;;5053891;28;20227;-59
2021/12/10 01:54:41;;;;;;;2.30;1.67;;;16.50;56.50;;;;;;5053266;28;20368;-60
2021/12/10 01:57:07;;;;;;;2.25;1.60;;;16.50;55.80;;;;;;5054070;28;20368;-59
2021/12/10 01:59:34;;;;;;;2.58;2.20;;;16.50;55.80;;;;;;5053826;28;20521;-59
2021/12/10 02:02:06;;;;;;;2.15;1.50;;;16.50;55.80;;;;;;5053020;28;20957;-59
2021/12/10 02:04:33;;;;;;;1.83;1.70;;;16.50;55.90;;;;;;5053470;28;20237;-60
2021/12/10 02:07:00;;;;;;;2.28;2.05;;;16.50;55.80;;;;;;5053728;28;20248;-60
2021/12/10 02:09:25;;;;;;;1.85;1.65;;;16.50;55.90;;;;;;5052782;28;20218;-60
2021/12/10 02:11:51;;;;;;;2.30;1.70;;;16.40;55.80;;;;;;5053853;28;20269;-60
2021/12/10 02:14:17;;;;;;;1.77;1.67;;;16.40;55.80;;;;;;5054121;28;20170;-59
2021/12/10 02:16:43;;;;;;;1.67;1.52;;;16.40;55.80;;;;;;5052514;28;20181;-60
2021/12/10 02:19:08;;;;;;;1.30;1.20;;;16.40;55.80;;;;;;5052767;28;20209;-59
2021/12/10 02:21:36;;;;;;;1.63;1.30;;;16.40;55.90;;;;;;5052483;28;20172;-59
2021/12/10 02:24:02;;;;;;;1.75;1.50;;;16.40;55.80;;;;;;5053363;28;20479;-59
2021/12/10 02:26:36;;;;;;;3.17;1.63;;;16.40;55.80;;;;;;5052979;28;20224;-60
2021/12/10 02:29:02;;;;;;;2.53;1.55;;;16.40;55.80;;;;;;5052236;28;20214;-60
2021/12/10 02:31:27;;;;;;;2.05;1.60;;;16.30;55.80;;;;;;5053043;28;20182;-60
2021/12/10 02:33:55;;;;;;;2.50;1.60;;;16.30;55.90;;;;;;5053282;28;20176;-61
2021/12/10 02:36:20;;;;;;;1.88;1.40;;;16.30;55.90;;;;;;5052290;28;20179;-60
2021/12/10 02:38:47;;;;;;;2.38;1.80;;;16.30;55.90;;;;;;5053481;28;20178;-60
2021/12/10 02:41:14;;;;;;;2.03;1.83;;;16.30;55.90;;;;;;5053136;28;20225;-60
2021/12/10 02:43:39;;;;;;;1.50;1.40;;;16.30;55.90;;;;;;5051967;28;20272;-59
2021/12/10 02:46:05;;;;;;;2.15;1.63;;;16.30;55.80;;;;;;5052922;28;20206;-59
2021/12/10 02:48:31;;;;;;;1.50;1.30;;;16.30;55.90;;;;;;5052467;28;20918;-59
2021/12/10 02:50:56;;;;;;;1.73;1.48;;;16.30;55.90;;;;;;5052435;28;20197;-59
2021/12/10 02:53:27;;;;;;;1.55;1.45;;;16.30;56.00;;;;;;5052357;28;20227;-59
2021/12/10 02:55:52;;;;;;;2.20;1.80;;;16.30;56.00;;;;;;5052912;28;20203;-59
2021/12/10 02:58:18;;;;;;;1.42;1.30;;;16.20;55.90;;;;;;5051994;28;20252;-60
2021/12/10 03:01:19;;;;;;;1.35;1.25;;;16.20;55.90;;;;;;5052447;28;20175;-60
2021/12/10 03:03:44;;;;;;;1.58;1.48;;;16.20;55.90;;;;;;5051895;28;20662;-59
2021/12/10 03:06:11;;;;;;;2.63;1.80;;;16.20;55.90;;;;;;5052285;28;20207;-59
2021/12/10 03:08:41;;;;;;;1.50;1.35;;;16.20;55.80;;;;;;5052158;28;20218;-59
2021/12/10 03:11:07;;;;;;;2.67;1.50;;;16.20;56.50;;;;;;5051803;28;20273;-60
2021/12/10 03:13:32;;;;;;;1.45;1.35;;;16.20;55.90;;;;;;5050687;28;20195;-59
2021/12/10 03:15:58;;;;;;;1.73;1.38;;;16.20;55.90;;;;;;5052522;28;20194;-59
2021/12/10 03:18:26;;;;;;;2.05;1.85;;;16.10;55.90;;;;;;5051413;28;20171;-59
2021/12/10 03:20:52;;;;;;;1.65;1.50;;;16.10;55.90;;;;;;5052183;28;20611;-60
2021/12/10 03:23:17;;;;;;;1.70;1.27;;;16.10;55.90;;;;;;5052462;28;20202;-60
2021/12/10 03:25:43;;;;;;;2.58;1.42;;;16.10;55.80;;;;;;5051051;28;20669;-60
2021/12/10 03:28:08;;;;;;;1.60;1.45;;;16.10;55.90;;;;;;5052036;28;20242;-60
2021/12/10 03:30:38;;;;;;;1.83;1.40;;;16.10;55.90;;;;;;5051149;28;20257;-60
2021/12/10 03:33:03;;;;;;;2.08;1.88;;;16.10;55.90;;;;;;5051349;28;20173;-60
2021/12/10 03:35:31;;;;;;;1.77;1.52;;;16.10;56.50;;;;;;5051756;28;20178;-60
2021/12/10 03:37:58;;;;;;;2.00;1.80;;;16.10;55.90;;;;;;5051999;28;20183;-60
2021/12/10 03:40:23;;;;;;;1.85;1.30;;;16.10;55.90;;;;;;5050753;28;20638;-60
2021/12/10 03:42:50;;;;;;;2.35;1.60;;;16.10;55.90;;;;;;5051785;28;20236;-60
2021/12/10 03:45:16;;;;;;;1.55;1.27;;;16.00;55.80;;;;;;5051967;28;20265;-60
2021/12/10 03:47:41;;;;;;;2.05;1.70;;;16.00;55.90;;;;;;5050888;28;20258;-59
2021/12/10 03:50:08;;;;;;;3.28;1.83;;;16.00;55.80;;;;;;5052279;28;20308;-59
2021/12/10 03:52:34;;;;;;;1.27;1.20;;;16.00;55.90;;;;;;5051307;28;20697;-60
2021/12/10 03:55:01;;;;;;;2.22;1.70;;;16.00;55.90;;;;;;5051031;28;20190;-60
2021/12/10 03:57:26;;;;;;;2.67;1.80;;;16.00;55.80;;;;;;5051486;28;20653;-60
2021/12/10 03:59:52;;;;;;;1.50;1.40;;;16.00;56.50;;;;;;5051612;28;20171;-59
2021/12/10 04:02:17;;;;;;;2.38;1.88;;;16.00;55.90;;;;;;5050985;28;20178;-61
2021/12/10 04:04:49;;;;;;;1.45;1.35;;;15.90;55.80;;;;;;5051518;28;20171;-60
2021/12/10 04:07:17;;;;;;;2.28;1.80;;;15.90;55.80;;;;;;5050800;28;20637;-60
2021/12/10 04:09:42;;;;;;;2.42;1.40;;;15.90;55.80;;;;;;5051228;28;20230;-60
2021/12/10 04:12:10;;;;;;;1.58;1.40;;;15.90;55.90;;;;;;5051925;28;20171;-60
2021/12/10 04:14:36;;;;;;;2.30;1.65;;;15.90;55.80;;;;;;5050823;28;20237;-60
2021/12/10 04:17:02;;;;;;;1.60;1.50;;;15.90;55.80;;;;;;5051889;28;20178;-60
2021/12/10 04:19:28;;;;;;;1.70;1.60;;;15.90;55.90;;;;;;5051540;28;20262;-59
2021/12/10 04:21:57;;;;;;;1.48;1.38;;;15.90;55.80;;;;;;5050807;28;20202;-60
2021/12/10 04:24:24;;;;;;;1.60;1.27;;;15.90;55.80;;;;;;5051375;28;20228;-60
2021/12/10 04:26:50;;;;;;;1.75;1.17;;;15.90;55.80;;;;;;5051738;28;20202;-59
2021/12/10 04:29:19;;;;;;;2.00;1.40;;;15.90;55.80;;;;;;5050857;28;20689;-60
2021/12/10 04:31:45;;;;;;;1.58;1.25;;;15.90;55.70;;;;;;5051486;28;20232;-59
2021/12/10 04:34:10;;;;;;;2.55;1.50;;;15.80;55.80;;;;;;5051559;28;20594;-59
2021/12/10 04:36:36;;;;;;;1.38;1.20;;;15.80;55.70;;;;;;5050350;28;20254;-60
2021/12/10 04:39:02;;;;;;;1.23;1.10;;;15.80;55.70;;;;;;5051454;28;20651;-60
2021/12/10 04:41:27;;;;;;;1.40;1.30;;;15.80;55.70;;;;;;5051977;28;20268;-60
2021/12/10 04:43:53;;;;;;;2.03;1.20;;;15.80;55.70;;;;;;5054910;28;20179;-59
2021/12/10 04:46:18;;;;;;;2.40;1.20;;;15.80;55.70;;;;;;5055436;28;20229;-59
2021/12/10 04:48:54;;;;;;;1.77;1.60;;;15.80;55.70;;;;;;5055112;28;20259;-59
2021/12/10 04:51:21;;;;;;;1.80;1.45;;;15.80;55.60;;;;;;5054115;28;20575;-60
2021/12/10 04:53:48;;;;;;;1.75;1.65;;;15.80;56.20;;;;;;5055169;28;20425;-60
2021/12/10 04:56:13;;;;;;;1.60;1.50;;;15.70;55.60;;;;;;5054671;28;20182;-60
2021/12/10 04:58:39;;;;;;;2.22;1.40;;;15.70;56.20;;;;;;5054725;28;20183;-60
2021/12/10 05:01:05;;;;;;;1.33;1.20;;;15.70;55.60;;;;;;5055193;28;20167;-60
2021/12/10 05:03:30;;;;;;;1.48;1.38;;;15.70;55.60;;;;;;5054149;28;20555;-59
2021/12/10 05:06:01;;;;;;;1.50;1.40;;;15.70;55.60;;;;;;5054902;28;20171;-59
2021/12/10 05:08:27;;;;;;;2.92;1.23;;;15.70;55.50;;;;;;5054477;28;20682;-60
2021/12/10 05:10:52;;;;;;;2.17;1.40;;;15.70;55.50;;;;;;5053937;28;20174;-60
2021/12/10 05:13:18;;;;;;;1.92;1.50;;;15.70;55.50;;;;;;5054839;28;20186;-60
2021/12/10 05:15:44;;;;;;;1.60;1.38;;;15.70;55.50;;;;;;5054854;28;20175;-60
2021/12/10 05:18:12;;;;;;;2.88;1.98;;;15.70;55.60;;;;;;5054033;28;20178;-60
2021/12/10 05:20:38;;;;;;;1.67;1.33;;;15.70;55.50;;;;;;5054468;28;20290;-60
2021/12/10 05:23:04;;;;;;;2.13;1.60;;;15.70;55.50;;;;;;5054803;28;20175;-60
2021/12/10 05:25:30;;;;;;;2.42;1.42;;;15.60;55.50;;;;;;5053699;28;20221;-60
2021/12/10 05:27:56;;;;;;;1.60;1.30;;;15.60;55.50;;;;;;5054575;28;20171;-59
2021/12/10 05:30:23;;;;;;;1.42;1.30;;;15.60;55.40;;;;;;5054152;28;20187;-58
2021/12/10 05:32:48;;;;;;;2.40;1.60;;;15.60;55.50;;;;;;5053749;28;20206;-59
2021/12/10 05:35:14;;;;;;;1.70;1.50;;;15.60;55.50;;;;;;5054227;28;20198;-59
2021/12/10 05:37:39;;;;;;;1.67;1.35;;;15.60;55.50;;;;;;5054214;28;20171;-59
2021/12/10 05:40:07;;;;;;;2.00;1.30;;;15.60;55.60;;;;;;5053751;28;20638;-59
2021/12/10 05:42:32;;;;;;;1.63;1.30;;;15.60;55.50;;;;;;5054051;28;20179;-59
2021/12/10 05:44:58;;;;;;;2.15;1.40;;;15.60;55.50;;;;;;5054297;28;20167;-59
2021/12/10 05:47:23;;;;;;;1.33;1.23;;;15.60;55.60;;;;;;5053256;28;20178;-60
2021/12/10 05:49:49;;;;;;;1.67;1.58;;;15.60;55.50;;;;;;5053956;28;20226;-59
2021/12/10 05:52:15;;;;;;;1.55;1.20;;;15.50;55.50;;;;;;5053458;28;20270;-59
2021/12/10 05:54:40;;;;;;;2.38;1.50;;;15.50;55.50;;;;;;5052552;28;20175;-59
2021/12/10 05:57:10;;;;;;;1.58;1.48;;;15.50;55.40;;;;;;5054047;28;20660;-59
2021/12/10 05:59:36;;;;;;;1.50;1.30;;;15.50;55.50;;;;;;5052884;28;20648;-59
2021/12/10 06:02:01;;;;;;;3.05;1.75;;;15.50;55.60;;;;;;5053907;28;20183;-59
2021/12/10 06:04:27;;;;;;;1.20;1.10;;;15.50;55.50;;;;;;5053318;28;20179;-58
2021/12/10 06:06:54;;;;;;;1.30;1.20;;;15.60;55.60;;;;;;5053476;28;20258;-60
2021/12/10 06:09:19;;;;;;;1.45;1.25;;;15.60;55.60;;;;;;5053694;28;20214;-60
2021/12/10 06:11:45;;;;;;;1.65;1.55;;;15.60;55.50;;;;;;5053843;28;20172;-60
2021/12/10 06:14:10;;;;;;;2.50;1.30;;;15.70;55.60;;;;;;5052945;28;20187;-60
2021/12/10 06:16:36;;;;;;;1.83;1.48;;;15.70;55.50;;;;;;5053186;28;20637;-59
2021/12/10 06:19:02;;;;;;;1.65;1.10;;;15.80;55.60;;;;;;5053651;28;20186;-60
2021/12/10 06:21:28;;;;;;;1.63;1.52;;;15.70;55.50;;;;;;5052750;28;20183;-60
2021/12/10 06:23:54;;;;;;;1.30;1.20;;;15.70;55.60;;;;;;5053642;28;20190;-59
2021/12/10 06:26:19;;;;;;;2.20;1.40;;;15.70;55.60;;;;;;5053558;28;20182;-59
2021/12/10 06:28:45;;;;;;;1.58;1.35;;;15.70;55.60;;;;;;5052587;28;20207;-59
2021/12/10 06:31:13;;;;;;;1.33;1.17;;;15.70;55.60;;;;;;5053124;28;20599;-60
2021/12/10 06:33:39;;;;;;;1.50;1.30;;;15.70;55.60;;;;;;5053095;28;20187;-59
2021/12/10 06:36:05;;;;;;;1.17;1.08;;;15.70;55.60;;;;;;5052676;28;20171;-59
2021/12/10 06:38:32;;;;;;;2.17;1.15;;;15.60;55.60;;;;;;5052866;28;20614;-60
2021/12/10 06:40:57;;;;;;;1.45;1.33;;;15.60;55.60;;;;;;5053334;28;20175;-60
2021/12/10 06:43:23;;;;;;;2.67;1.30;;;15.60;55.70;;;;;;5051615;28;20194;-60
2021/12/10 06:45:49;;;;;;;1.60;1.20;;;15.60;55.70;;;;;;5053021;28;20610;-60
2021/12/10 06:48:15;;;;;;;1.33;1.13;;;15.60;55.80;;;;;;5053179;28;20221;-60
2021/12/10 06:50:47;;;;;;;1.92;1.38;;;15.60;55.80;;;;;;5052143;28;20258;-60
2021/12/10 06:53:13;;;;;;;1.75;1.23;;;15.50;55.70;;;;;;5052771;28;20255;-60
2021/12/10 06:55:38;;;;;;;1.20;1.10;;;15.50;55.80;;;;;;5052596;28;20221;-61
2021/12/10 06:58:05;;;;;;;1.85;1.52;;;15.50;55.70;;;;;;5052349;28;20209;-60
2021/12/10 07:00:45;;;;;;;1.35;1.25;;;15.50;55.70;;;;;;5052370;28;20629;-60
2021/12/10 07:03:13;;;;;;;1.35;1.25;;;15.50;55.70;;;;;;5052380;28;20207;-60
2021/12/10 07:05:39;;;;;;;1.83;1.40;;;15.50;55.60;;;;;;5052283;28;20191;-60
2021/12/10 07:08:05;;;;;;;1.40;1.30;;;15.60;55.70;;;;;;5052925;28;20234;-58
2021/12/10 07:10:30;;;;;;;2.03;1.20;;;15.60;55.60;;;;;;5051798;28;20254;-59
2021/12/10 07:12:56;;;;;;;1.30;1.20;;;15.70;55.60;;;;;;5052688;28;20254;-60
2021/12/10 07:15:21;;;;;;;1.23;1.13;;;15.90;55.50;;;;;;5052008;28;20175;-59
2021/12/10 07:17:49;;;;;;;1.30;1.20;;;16.10;55.10;;;;;;5051616;28;20657;-60
2021/12/10 07:20:15;;;;;;;1.08;0.90;;;16.30;54.90;;;;;;5052504;28;20171;-60
2021/12/10 07:22:41;;;;;;;1.10;1.08;;;16.50;54.60;;;;;;5052102;28;20206;-60
2021/12/10 07:25:07;;;;;;;1.40;1.20;;;16.70;54.30;;;;;;5051601;28;20198;-60
2021/12/10 07:27:32;;;;;;;1.25;1.15;;;16.90;54.00;;;;;;5051920;28;20171;-60
2021/12/10 07:29:58;;;;;;;1.20;1.10;;;17.00;53.80;;;;;;5052395;28;20219;-60
2021/12/10 07:32:23;;;;;;;1.17;1.08;;;17.10;53.80;;;;;;5051218;28;20173;-60
2021/12/10 07:34:49;;;;;;;1.35;0.90;;;17.40;53.30;;;;;;5052067;28;20179;-60
2021/12/10 07:37:14;;;;;;;1.25;1.13;;;17.70;52.70;;;;;;5052242;28;20167;-60
2021/12/10 07:39:40;;;;;;;1.27;1.17;;;18.00;52.20;;;;;;5050955;28;20691;-59
2021/12/10 07:42:07;;;;;;;0.77;0.73;;;18.10;51.90;;;;;;5052003;28;20175;-59
2021/12/10 07:44:34;;;;;;;1.40;1.27;;;18.30;51.70;;;;;;5051898;28;20201;-60
2021/12/10 07:47:04;;;;;;;1.20;1.05;;;18.40;51.50;;;;;;5051474;28;20186;-60
2021/12/10 07:49:31;;;;;;;1.00;0.90;;;18.40;51.40;;;;;;5051606;28;20236;-59
2021/12/10 07:51:57;;;;;;;2.58;1.15;;;18.60;51.30;;;;;;5051807;28;20183;-59
2021/12/10 07:54:22;;;;;;;1.98;1.00;;;18.60;51.30;;;;;;5051065;28;20179;-60
2021/12/10 07:56:48;;;;;;;0.80;0.80;;;18.60;51.30;;;;;;5051839;28;20634;-60
2021/12/10 07:59:13;;;;;;;0.98;0.93;;;18.60;51.30;;;;;;5051283;28;20186;-61
2021/12/10 08:01:39;;;;;;;0.80;0.80;;;18.60;52.00;;;;;;5051777;28;20206;-60
2021/12/10 08:04:06;;;;;;;1.27;1.15;;;18.60;51.50;;;;;;5051794;28;20219;-60
2021/12/10 08:06:32;;;;;;;1.05;0.98;;;18.60;51.60;;;;;;5050827;28;20175;-59
2021/12/10 08:08:57;;;;;;;1.10;0.95;;;18.50;51.60;;;;;;5051679;28;20214;-60
2021/12/10 08:11:23;;;;;;;1.27;0.98;;;18.50;51.80;;;;;;5051093;28;20170;-59
2021/12/10 08:13:48;;;;;;;1.30;1.20;;;18.30;52.00;;;;;;5051200;28;20187;-60
2021/12/10 08:16:15;;;;;;;1.10;0.95;;;18.30;52.20;;;;;;5054156;28;20174;-60
2021/12/10 08:18:40;;;;;;;0.88;0.85;;;18.20;52.80;;;;;;5058041;28;20511;-60
2021/12/10 08:21:06;;;;;;;0.95;0.95;;;18.20;52.30;;;;;;5057674;28;20671;-60
2021/12/10 08:23:32;;;;;;;2.13;0.90;;;18.20;52.40;;;;;;5057913;28;20221;-67
2021/12/10 08:25:57;;;;;;;4.20;1.23;;;18.20;52.50;;;;;;5058019;28;20171;-66
2021/12/10 08:28:26;;;;;;;1.95;1.45;;;18.30;52.50;;;;;;5057189;28;20313;-62
2021/12/10 08:30:52;;;;;;;2.63;1.15;;;18.30;52.60;;;;;;5058106;28;20232;-64
2021/12/10 08:33:18;;;;;;;3.17;1.70;;;18.30;52.50;;;;;;5058099;28;20198;-65
2021/12/10 08:35:47;;;;;;;1.90;1.20;;;18.40;52.80;;;;;;5057111;28;20175;-65
2021/12/10 08:38:13;;;;;;;3.25;1.30;;;18.50;52.70;;;;;;5057857;28;20182;-65
2021/12/10 08:40:44;;;;;;;2.80;1.20;;;18.60;52.40;;;;;;5057645;28;20716;-65
2021/12/10 08:43:10;;;;;;;1.83;1.05;;;18.70;52.50;;;;;;5057496;28;20175;-66
2021/12/10 08:45:36;;;;;;;2.33;1.20;;;18.70;52.30;;;;;;5057799;28;20190;-64
2021/12/10 08:48:01;;;;;;;2.38;1.10;;;18.70;52.30;;;;;;5057785;28;20178;-63
2021/12/10 08:50:27;;;;;;;3.88;1.38;;;18.80;52.30;;;;;;5056865;28;20174;-63
2021/12/10 08:52:58;;;;;;;1.67;1.20;;;18.90;52.30;;;;;;5057618;28;20215;-64
2021/12/10 08:55:26;;;;;;;3.33;1.55;;;18.90;52.30;;;;;;5056801;28;20622;-64
2021/12/10 08:57:51;;;;;;;1.85;1.05;;;18.90;52.40;;;;;;5057977;28;20190;-65
2021/12/10 09:00:17;;;;;;;1.42;1.10;;;18.90;52.40;;;;;;5057709;28;20175;-62
2021/12/10 09:02:42;;;;;;;4.05;1.55;;;18.90;52.40;;;;;;5056611;28;20675;-66
2021/12/10 09:05:09;;;;;;;5.68;1.15;;;18.80;52.30;;;;;;5057842;28;20181;-66
2021/12/10 09:07:34;;;;;;;1.92;1.10;;;18.80;52.60;;;;;;5057417;28;20179;-65
2021/12/10 09:10:00;;;;;;;4.40;1.23;;;18.80;52.60;;;;;;5057103;28;20245;-65
2021/12/10 09:12:26;;;;;;;1.17;1.05;;;18.80;52.70;;;;;;5057709;28;20182;-64
2021/12/10 09:14:54;;;;;;;2.78;1.15;;;18.80;52.80;;;;;;5057716;28;20175;-65
2021/12/10 09:17:23;;;;;;;0.85;0.85;;;18.80;52.80;;;;;;5056739;28;20175;-64
2021/12/10 09:19:50;;;;;;;2.25;1.17;;;18.80;52.80;;;;;;5057517;28;20187;-64
2021/12/10 09:22:16;;;;;;;1.70;1.20;;;18.70;53.00;;;;;;5057563;28;20202;-69
2021/12/10 09:24:42;;;;;;;3.28;1.10;;;18.60;53.00;;;;;;5056655;28;20257;-69
2021/12/10 09:27:07;;;;;;;2.17;1.35;;;18.50;53.40;;;;;;5056987;28;20258;-68
2021/12/10 09:29:36;;;;;;;3.90;1.50;;;18.40;53.60;;;;;;5054156;28;20741;-69
2021/12/10 09:32:03;;;;;;;3.78;1.58;;;18.30;53.80;;;;;;5053819;28;20203;-70
2021/12/10 09:34:32;;;;;;;2.75;1.20;;;18.20;53.90;;;;;;5054139;28;20183;-65
2021/12/10 09:36:57;;;;;;;3.17;1.75;;;18.20;54.20;;;;;;5054536;28;20553;-66
2021/12/10 09:39:23;;;;;;;2.35;1.20;;;18.20;54.00;;;;;;5053373;28;20179;-66
2021/12/10 09:41:48;;;;;;;2.42;1.33;;;18.30;54.00;;;;;;5054340;28;20203;-65
2021/12/10 09:44:15;;;;;;;2.60;1.10;;;18.30;53.90;;;;;;5054205;28;20283;-64
2021/12/10 09:46:40;;;;;;;2.22;1.50;;;18.30;53.90;;;;;;5053031;28;20182;-64
2021/12/10 09:49:07;;;;;;;1.83;1.20;;;18.40;53.90;;;;;;5053845;28;20207;-64
2021/12/10 09:51:35;;;;;;;2.53;1.20;;;18.40;53.90;;;;;;5053581;28;20533;-63
2021/12/10 09:54:04;;;;;;;1.25;1.02;;;18.40;53.90;;;;;;5053465;28;20226;-63
2021/12/10 09:56:30;;;;;;;2.80;0.90;;;18.40;54.00;;;;;;5053745;28;20175;-64
2021/12/10 09:58:56;;;;;;;2.90;1.02;;;18.40;53.90;;;;;;5052843;28;20906;-64
2021/12/10 10:01:24;;;;;;;3.60;1.23;;;18.40;53.90;;;;;;5053216;28;20540;-65
2021/12/10 10:03:51;;;;;;;3.40;1.10;;;18.50;54.00;;;;;;5053623;28;20202;-64
2021/12/10 10:06:16;;;;;;;1.17;0.98;;;18.50;54.00;;;;;;5052959;28;20646;-65
2021/12/10 10:08:43;;;;;;;1.45;1.08;;;18.50;54.00;;;;;;5053534;28;20301;-65
2021/12/10 10:11:28;;;;;;;1.10;1.00;;;18.50;54.00;;;;;;5053842;28;20186;-64
2021/12/10 10:13:54;;;;;;;3.22;1.55;;;18.50;54.00;;;;;;5052846;28;20206;-65
2021/12/10 10:16:20;;;;;;;2.30;0.90;;;18.50;54.00;;;;;;5053241;28;20179;-64
2021/12/10 10:18:46;;;;;;;1.90;1.08;;;18.50;54.00;;;;;;5053676;28;20198;-64
2021/12/10 10:21:23;;;;;;;2.85;1.13;;;18.60;54.00;;;;;;5052857;28;20171;-63
2021/12/10 10:23:49;;;;;;;2.67;1.10;;;18.50;53.90;;;;;;5053391;28;20730;-63
2021/12/10 10:26:21;;;;;;;3.65;1.10;;;18.50;54.00;;;;;;5053460;28;20183;-62
2021/12/10 10:28:47;;;;;;;3.28;1.70;;;18.40;54.10;;;;;;5052513;28;20215;-63
2021/12/10 10:31:18;;;;;;;4.38;1.30;;;18.40;54.20;;;;;;5053465;28;20574;-64
2021/12/10 10:33:45;;;;;;;2.67;1.30;;;18.30;54.20;;;;;;5053408;28;20317;-62
2021/12/10 10:36:18;;;;;;;4.72;1.15;;;18.20;54.40;;;;;;5052671;28;20197;-65
2021/12/10 10:38:57;;;;;;;3.13;1.10;;;18.20;54.50;;;;;;5053281;28;20224;-64
2021/12/10 10:41:24;;;;;;;3.58;1.50;;;18.20;54.50;;;;;;5052042;28;20236;-65
2021/12/10 10:43:50;;;;;;;4.07;1.30;;;18.20;54.50;;;;;;5053381;28;20179;-65
2021/12/10 10:46:15;;;;;;;1.58;1.20;;;18.30;54.60;;;;;;5052763;28;20178;-63
2021/12/10 10:48:41;;;;;;;4.03;1.27;;;18.30;54.60;;;;;;5051895;28;20199;-63
2021/12/10 10:51:12;;;;;;;3.60;1.20;;;18.30;54.50;;;;;;5052908;28;20167;-65
2021/12/10 10:53:44;;;;;;;5.13;1.40;;;18.30;54.40;;;;;;5052291;28;20275;-64
2021/12/10 10:56:15;;;;;;;3.78;1.40;;;18.40;54.40;;;;;;5051890;28;20631;-64
2021/12/10 10:58:49;;;;;;;2.45;0.90;;;18.30;54.50;;;;;;5052179;28;20717;-64
2021/12/10 11:01:23;;;;;;;2.55;1.30;;;18.30;54.60;;;;;;5052526;28;20659;-65
2021/12/10 11:04:18;;;;;;;4.20;1.70;;;18.20;54.60;;;;;;5051853;28;20189;-67
2021/12/10 11:06:48;;;;;;;4.82;1.40;;;18.20;54.80;;;;;;5052537;28;20630;-64
2021/12/10 11:09:26;;;;;;;4.50;1.40;;;18.10;54.80;;;;;;5051864;28;20225;-64
2021/12/10 11:12:00;;;;;;;2.70;1.23;;;18.10;55.00;;;;;;5052406;28;20167;-63
2021/12/10 11:14:36;;;;;;;1.95;1.00;;;18.10;55.00;;;;;;5052005;28;20270;-64
2021/12/10 11:17:14;;;;;;;2.33;1.45;;;18.10;55.00;;;;;;5051589;28;20262;-64
2021/12/10 11:19:41;;;;;;;1.88;1.27;;;18.10;55.00;;;;;;5052016;28;20274;-65
2021/12/10 11:22:12;;;;;;;4.43;1.15;;;18.30;55.00;;;;;;5052221;28;20187;-64
2021/12/10 11:24:46;;;;;;;8.65;1.45;;;18.20;54.80;;;;;;5051287;28;20211;-64
2021/12/10 11:27:19;;;;;;;3.63;1.45;;;18.20;54.90;;;;;;5052177;28;20262;-65
2021/12/10 11:30:02;;;;;;;2.85;1.20;;;18.20;55.00;;;;;;5052124;28;20211;-65
2021/12/10 11:32:37;;;;;;;1.92;1.00;;;18.00;54.90;;;;;;5051406;28;20175;-65
2021/12/10 11:35:08;;;;;;;7.43;2.33;;;18.10;55.20;;;;;;5052017;28;20621;-66
2021/12/10 11:37:46;;;;;;;2.05;1.35;;;18.00;55.30;;;;;;5050867;28;20175;-64
2021/12/10 11:40:41;;;;;;;2.83;1.08;;;18.00;55.40;;;;;;5052024;28;20237;-64
2021/12/10 11:43:20;;;;;;;2.60;1.10;;;18.00;55.40;;;;;;5051858;28;20187;-64
2021/12/10 11:46:05;;;;;;;4.10;1.42;;;18.00;55.30;;;;;;5051013;28;20175;-64
2021/12/10 11:48:32;;;;;;;6.70;2.03;;;18.00;55.20;;;;;;5051678;28;20198;-62
2021/12/10 11:51:00;;;;;;;2.22;1.40;;;18.00;55.10;;;;;;5051046;28;20230;-64
2021/12/10 11:53:27;;;;;;;6.10;1.38;;;18.00;55.00;;;;;;5050626;28;20223;-64
2021/12/10 11:55:58;;;;;;;1.40;1.13;;;18.00;54.90;;;;;;5050276;28;20277;-67
2021/12/10 11:58:24;;;;;;;7.25;1.50;;;18.00;55.00;;;;;;5050634;28;20641;-66
2021/12/10 12:00:50;;;;;;;4.88;1.33;;;17.90;55.00;;;;;;5051491;28;20175;-63
2021/12/10 12:03:16;;;;;;;1.63;1.10;;;17.80;55.00;;;;;;5051677;28;20491;-65
2021/12/10 12:05:42;;;;;;;5.10;1.30;;;17.80;55.10;;;;;;5050947;28;20167;-65
2021/12/10 12:08:10;;;;;;;3.45;1.10;;;17.80;55.00;;;;;;5051627;28;20265;-64
2021/12/10 12:10:39;;;;;;;7.22;1.67;;;17.80;55.00;;;;;;5051466;28;20301;-65
2021/12/10 12:13:20;;;;;;;4.68;1.65;;;17.80;55.10;;;;;;5050916;28;20179;-64
2021/12/10 12:16:02;;;;;;;2.28;1.33;;;17.80;55.10;;;;;;5051783;28;20178;-64
2021/12/10 12:18:30;;;;;;;1.60;1.25;;;17.90;55.20;;;;;;5051426;28;20211;-63
2021/12/10 12:21:37;;;;;;;3.35;1.15;;;17.90;55.20;;;;;;5050851;28;20186;-64
2021/12/10 12:26:33;;;;;;;2.28;1.40;;;17.90;55.10;;;;;;5050780;28;20174;-64
2021/12/10 12:29:04;;;;;;;3.58;1.30;;;17.90;55.00;;;;;;5051431;28;20207;-64
2021/12/10 12:31:38;;;;;;;5.03;1.75;;;17.90;55.00;;;;;;5051177;28;20195;-66
2021/12/10 12:34:16;;;;;;;2.60;1.25;;;17.80;55.20;;;;;;5050530;28;20641;-67
2021/12/10 12:36:51;;;;;;;2.63;1.30;;;17.80;55.30;;;;;;5058850;28;20178;-68
2021/12/10 12:39:29;;;;;;;3.80;1.65;;;17.80;55.30;;;;;;5036992;28;20220;-66
2021/12/10 12:41:59;;;;;;;3.78;1.23;;;17.80;55.30;;;;;;5070425;28;20174;-67
2021/12/10 12:44:30;;;;;;;4.55;1.50;;;17.80;55.20;;;;;;5060684;28;20175;-65
2021/12/10 12:47:09;;;;;;;3.83;1.30;;;17.80;55.10;;;;;;5051326;28;20194;-66
2021/12/10 12:49:37;;;;;;;3.40;1.15;;;17.80;55.10;;;;;;5050155;28;20222;-66
2021/12/10 12:52:09;;;;;;;2.58;1.20;;;17.90;55.00;;;;;;5053742;28;20213;-66
2021/12/10 12:54:42;;;;;;;2.17;1.30;;;17.90;54.90;;;;;;5069933;28;20267;-66
2021/12/10 12:57:10;;;;;;;1.83;1.58;;;18.00;54.70;;;;;;5071546;28;20202;-66
2021/12/10 12:59:38;;;;;;;3.72;1.33;;;18.00;54.60;;;;;;5055307;28;20263;-66
2021/12/10 13:02:06;;;;;;;3.22;1.40;;;18.10;54.60;;;;;;5050790;28;20219;-67
2021/12/10 13:04:38;;;;;;;2.38;1.50;;;18.00;54.50;;;;;;5054615;28;20183;-66